Flight Track Log - Related Links

Times and Time Zones

All times are in EDT time to prevent confusion due to time zone crossing. See the N30VP flight status page for this flight to view local times or setup timezone preferences in your user account.

Time Position Orientation Groundspeed Altitude Reporting Facility
EDT Latitude Longitude Course Direction KTS MPH feet Rate Location/Type
Mon 07:26:24 AM 39.0667 -78.0500 229° Southwest 234 269 6,400  Level Potomac TRACON
Mon 07:27:07 AM 39.0069 -78.0625 189° South 255 293 8,600 2,139 Climbing Washington Center
Mon 07:28:05 AM 38.9317 -78.0708 185° South 279 321 10,000 700 Climbing Washington Center
Mon 07:29:07 AM 38.8419 -78.0756 182° South 319 367 10,000 50 Level Washington Center
Mon 07:30:05 AM 38.7583 -78.0861 186° South 336 387 10,100 202 Climbing Washington Center
Mon 07:31:00 AM 38.6316 -78.3971 229° Southwest  Level Estimated
Mon 07:31:06 AM 38.6642 -78.0964 185° South 347 399 10,400  Level Washington Center
Mon 07:32:07 AM 38.5850 -78.1042 184° South 347 399 12,700 3,076 Climbing Washington Center
Mon 07:33:05 AM 38.4700 -78.1136 184° South 347 399 16,500 2,168 Climbing Washington Center
Mon 07:34:06 AM 38.3656 -78.1233 184° South 361 415 17,000 744 Climbing Washington Center
Mon 07:35:06 AM 38.2672 -78.1331 184° South 384 442 18,000 1,563 Climbing Washington Center
Mon 07:36:05 AM 38.1686 -78.1694 196° South 354 407 20,100 2,017 Climbing Washington Center
Mon 07:37:05 AM 38.1019 -78.2569 226° Southwest 345 397 22,000 1,884 Climbing Washington Center
Mon 07:38:06 AM 38.0333 -78.3442 225° Southwest 344 396 23,900 1,587 Climbing Washington Center
Mon 07:39:06 AM 37.9644 -78.4311 225° Southwest 349 402 25,200 1,041 Climbing Washington Center
Mon 07:40:07 AM 37.8872 -78.5203 222° Southwest 366 421 26,000 397 Climbing Washington Center
Mon 07:41:07 AM 37.8142 -78.6042 222° Southwest 382 440 26,000  Level Washington Center
Mon 07:42:05 AM 37.7283 -78.7006 222° Southwest 398 458 26,000  Level Washington Center
Mon 07:43:06 AM 37.6422 -78.8019 223° Southwest 411 473 26,000  Level Washington Center
Mon 07:44:06 AM 37.5542 -78.9003 222° Southwest 417 480 26,000  Level Washington Center
Mon 07:45:05 AM 37.4658 -78.9986 221° Southwest 422 486 26,000  Level Washington Center
Mon 07:46:06 AM 37.3689 -79.1067 222° Southwest 428 493 26,000  Level Washington Center
Mon 07:47:05 AM 37.2783 -79.2069 221° Southwest 428 493 26,000  Level Washington Center
Mon 07:48:05 AM 37.1839 -79.2936 216° Southwest 428 493 26,000  Level Washington Center
Mon 07:49:06 AM 37.0872 -79.3750 214° Southwest 428 493 26,000  Level Washington Center
Mon 07:50:06 AM 36.9908 -79.4533 213° Southwest 428 493 26,000  Level Washington Center
Mon 07:51:07 AM 36.8944 -79.5317 213° Southwest 423 487 26,000  Level Washington Center
Mon 07:52:04 AM 36.8108 -79.6028 214° Southwest 423 487 26,000  Level Washington Center
Mon 07:53:05 AM 36.7122 -79.6831 213° Southwest 423 487 26,000  Level Washington Center
Mon 07:54:05 AM 36.6133 -79.7633 213° Southwest 430 495 26,000  Level Washington Center
Mon 07:55:06 AM 36.5144 -79.8433 213° Southwest 430 495 26,000 -1,176 Level Washington Center
Mon 07:56:33 AM 36.3661 -79.9625 213° Southwest 430 495 23,100 -1,633 Descending Atlanta Center
Mon 07:57:33 AM 36.2869 -80.0283 214° Southwest 407 468 22,000 -550 Descending Atlanta Center
Mon 07:58:33 AM 36.1994 -80.1019 214° Southwest 396 456 22,000 -350 Level Atlanta Center
Mon 07:59:33 AM 36.1142 -80.1756 215° Southwest 389 448 21,300 -1,850 Descending Atlanta Center
Mon 08:00:33 AM 36.0331 -80.2436 214° Southwest 372 428 18,300 -2,700 Descending Atlanta Center
Mon 08:01:33 AM 35.9517 -80.3142 215° Southwest 352 405 15,900 -2,323 Descending Atlanta Center
Mon 08:01:35 AM 35.9478 -80.3222 239° Southwest 330 380 15,900 -1,455 Level Atlanta Center
Mon 08:02:06 AM 35.9153 -80.3492 214° Southwest 318 366 15,100 -1,345 Descending Atlanta Center
Mon 08:02:33 AM 35.8886 -80.3683 210° Southwest 324 373 14,600 -1,574 Descending Atlanta Center
Mon 08:03:07 AM 35.8442 -80.4139 220° Southwest 290 334 13,500 -1,500 Descending Atlanta Center
Mon 08:03:33 AM 35.8214 -80.4253 202° Southwest 305 351 13,100 -1,475 Descending Atlanta Center
Mon 08:04:08 AM 35.7769 -80.4681 218° Southwest 282 325 12,000 -1,600 Descending Atlanta Center
Mon 08:04:33 AM 35.7564 -80.4817 208° Southwest 299 344 11,500 -1,574 Descending Atlanta Center
Mon 08:05:09 AM 35.7139 -80.5219 218° Southwest 278 320 10,400 -1,500 Descending Atlanta Center
Mon 08:05:33 AM 35.6850 -80.5386 205° Southwest 293 337 10,000 -1,377 Descending Atlanta Center
Mon 08:06:10 AM 35.6411 -80.5328 174° South 277 319 9,000 -1,600 Descending Atlanta Center
Mon 08:06:33 AM 35.6114 -80.5161 155° Southeast 263 303 8,400 -1,452 Descending Atlanta Center
Mon 08:07:12 AM 35.5686 -80.4822 147° Southeast 273 314 7,500 -1,200 Descending Atlanta Center
Mon 08:07:33 AM 35.5472 -80.4653 147° Southeast 251 289 7,200 -1,082 Descending Atlanta Center
Mon 08:08:13 AM 35.5067 -80.4339 148° Southeast 264 304 6,400 -1,300 Descending Atlanta Center
Mon 08:08:33 AM 35.4853 -80.4169 147° Southeast 265 305 5,900 -1,180 Descending Atlanta Center
Mon 08:09:14 AM 35.4406 -80.3858 150° Southeast 268 308 5,200 -900 Descending Atlanta Center
Mon 08:09:33 AM 35.4236 -80.3714 145° Southeast 272 313 5,000 -197 Descending Atlanta Center
Mon 08:10:15 AM 35.3808 -80.3400 149° Southeast 265 305 5,000 -100 Level Atlanta Center
Mon 08:10:33 AM 35.3594 -80.3233 148° Southeast 272 313 4,900  Descending Atlanta Center
Mon 08:11:22 AM 35.3081 -80.2822 147° Southeast 268 308 5,000  Climbing Atlanta Center
Mon 08:11:33 AM 35.2975 -80.2725 143° Southeast 264 304 4,900 -197 Descending Atlanta Center
Mon 08:12:23 AM 35.2506 -80.2392 150° Southeast 237 273 4,800 -514 Descending Atlanta Center
Mon 08:13:18 AM 35.2014 -80.2008 147° Southeast 210 242 4,000 -873 Descending Atlanta Center
Mon 08:15:00 AM 35.0485 -80.0962 151° Southeast  Level Estimated
Mon 08:22:00 AM 35.0206 -80.0771 151° Southeast  Level Estimated
Mon 08:23:00 AM 35.0206 -80.0771 146° Southeast  Level Estimated

Login

Don't have an account? Register now (free) for customized features, flight alerts, and more!